createdAt,value
2023-02-12T00:02:26.545Z,50.87
2023-02-12T00:04:53.757Z,51.21
2023-02-12T00:07:20.548Z,50.76
2023-02-12T00:09:47.647Z,50.95
2023-02-12T00:12:14.422Z,51.12
2023-02-12T00:14:41.507Z,51.23
2023-02-12T00:17:08.279Z,51.11
2023-02-12T00:19:35.501Z,51.06
2023-02-12T00:22:02.366Z,50.94
2023-02-12T00:24:29.442Z,51.28
2023-02-12T00:26:56.167Z,51.06
2023-02-12T00:29:23.233Z,51.39
2023-02-12T00:31:50.015Z,51.04
2023-02-12T00:34:17.094Z,51.01
2023-02-12T00:36:44.083Z,51.33
2023-02-12T00:39:11.547Z,51.22
2023-02-12T00:41:38.311Z,51.06
2023-02-12T00:44:05.392Z,51.39
2023-02-12T00:46:32.202Z,51.27
2023-02-12T00:48:59.378Z,51.01
2023-02-12T00:51:26.275Z,51.48
2023-02-12T00:53:53.379Z,51.32
2023-02-12T00:56:20.105Z,51.41
2023-02-12T00:58:47.140Z,51.22
2023-02-12T01:01:13.958Z,51.20
2023-02-12T01:03:41.083Z,51.25
2023-02-12T01:06:08.039Z,51.05
2023-02-12T01:08:35.248Z,51.27
2023-02-12T01:11:03.178Z,51.59
2023-02-12T01:13:30.914Z,51.36
2023-02-12T01:16:14.930Z,51.38
2023-02-12T01:18:42.043Z,51.65
2023-02-12T01:21:16.645Z,51.52
2023-02-12T01:23:43.970Z,51.24
2023-02-12T01:26:11.663Z,51.47
2023-02-12T01:28:39.515Z,51.41
2023-02-12T01:31:14.427Z,51.34
2023-02-12T01:33:41.600Z,51.36
2023-02-12T01:36:09.100Z,51.59
2023-02-12T01:38:36.133Z,51.21
2023-02-12T01:41:14.238Z,51.41
2023-02-12T01:43:41.573Z,51.84
2023-02-12T01:46:08.902Z,51.74
2023-02-12T01:48:38.134Z,51.31
2023-02-12T01:51:04.994Z,51.39
2023-02-12T01:53:35.654Z,51.58
2023-02-12T01:56:02.636Z,51.49
2023-02-12T01:58:36.345Z,51.65
2023-02-12T02:01:04.616Z,51.47
2023-02-12T02:03:32.084Z,51.73
2023-02-12T02:06:05.227Z,51.77
2023-02-12T02:08:32.877Z,51.62
2023-02-12T02:10:59.631Z,51.53
2023-02-12T02:13:45.297Z,51.73
2023-02-12T02:16:20.684Z,51.79
2023-02-12T02:18:56.700Z,51.95
2023-02-12T02:21:26.403Z,51.77
2023-02-12T02:24:11.838Z,51.52
2023-02-12T02:26:54.600Z,51.64
2023-02-12T02:29:59.208Z,51.63
2023-02-12T02:32:30.829Z,51.40
2023-02-12T02:35:05.468Z,51.69
2023-02-12T02:37:36.103Z,51.73
2023-02-12T02:40:28.089Z,51.52
2023-02-12T02:43:15.621Z,51.43
2023-02-12T02:45:48.504Z,51.58
2023-02-12T02:48:29.037Z,51.57
2023-02-12T02:50:58.032Z,51.58
2023-02-12T02:53:31.289Z,51.53
2023-02-12T02:55:59.604Z,51.68
2023-02-12T02:58:45.142Z,51.56
2023-02-12T03:01:26.795Z,51.60
2023-02-12T03:04:04.393Z,51.63
2023-02-12T03:06:38.875Z,51.55
2023-02-12T03:09:22.513Z,51.74
2023-02-12T03:11:53.477Z,51.80
2023-02-12T03:14:31.520Z,51.35
2023-02-12T03:16:59.559Z,51.93
2023-02-12T03:19:29.492Z,51.47
2023-02-12T03:22:05.011Z,51.46
2023-02-12T03:24:40.797Z,51.50
2023-02-12T03:27:18.229Z,51.62
2023-02-12T03:29:45.092Z,51.52
2023-02-12T03:32:36.772Z,51.81
2023-02-12T03:35:12.369Z,51.46
2023-02-12T03:37:42.449Z,51.20
2023-02-12T03:40:42.910Z,51.53
2023-02-12T03:43:16.569Z,51.65
2023-02-12T03:45:55.662Z,51.59
2023-02-12T03:48:27.157Z,51.59
2023-02-12T03:50:57.113Z,51.66
2023-02-12T03:53:26.181Z,51.33
2023-02-12T03:55:55.069Z,51.42
2023-02-12T03:58:23.919Z,51.64
2023-02-12T04:00:50.962Z,51.54
2023-02-12T04:03:17.987Z,51.90
2023-02-12T04:05:44.730Z,51.61
2023-02-12T04:08:12.349Z,51.56
2023-02-12T04:10:42.439Z,51.76
2023-02-12T04:13:26.477Z,51.58
2023-02-12T04:16:07.909Z,51.39
2023-02-12T04:18:43.201Z,51.71
2023-02-12T04:21:16.684Z,51.57
2023-02-12T04:24:02.104Z,51.47
2023-02-12T04:26:39.772Z,51.61
2023-02-12T04:29:18.975Z,51.74
2023-02-12T04:31:45.824Z,51.43
2023-02-12T04:34:18.335Z,51.56
2023-02-12T04:37:05.339Z,51.60
2023-02-12T04:39:33.776Z,51.76
2023-02-12T04:42:01.101Z,52.12
2023-02-12T04:44:31.370Z,51.90
2023-02-12T04:46:58.226Z,51.93
2023-02-12T04:49:25.463Z,51.84
2023-02-12T04:51:52.268Z,52.01
2023-02-12T04:54:20.150Z,51.93
2023-02-12T04:56:46.991Z,51.86
2023-02-12T04:59:14.248Z,52.14
2023-02-12T05:01:41.242Z,51.95
2023-02-12T05:04:08.551Z,51.71
2023-02-12T05:06:36.095Z,51.53
2023-02-12T05:09:04.066Z,51.93
2023-02-12T05:11:30.891Z,51.95
2023-02-12T05:13:58.170Z,52.02
2023-02-12T05:16:25.028Z,51.77
2023-02-12T05:18:52.119Z,51.88
2023-02-12T05:21:18.955Z,51.75
2023-02-12T05:23:46.122Z,51.98
2023-02-12T05:26:14.419Z,51.95
2023-02-12T05:28:41.596Z,52.04
2023-02-12T05:31:09.629Z,52.04
2023-02-12T05:33:36.759Z,51.88
2023-02-12T05:36:10.895Z,52.02
2023-02-12T05:38:37.908Z,52.08
2023-02-12T05:41:06.084Z,52.50
2023-02-12T05:43:33.219Z,52.08
2023-02-12T05:46:00.891Z,52.09
2023-02-12T05:48:28.314Z,51.91
2023-02-12T05:50:55.329Z,52.23
2023-02-12T05:53:22.380Z,51.98
2023-02-12T05:55:49.131Z,52.32
2023-02-12T05:58:16.279Z,52.25
2023-02-12T06:00:43.096Z,52.19
2023-02-12T06:03:10.177Z,51.92
2023-02-12T06:05:36.916Z,52.28
2023-02-12T06:08:04.135Z,52.57
2023-02-12T06:10:30.883Z,52.24
2023-02-12T06:12:57.946Z,52.02
2023-02-12T06:15:24.700Z,52.22
2023-02-12T06:17:51.732Z,52.09
2023-02-12T06:20:18.512Z,52.13
2023-02-12T06:22:45.548Z,52.13
2023-02-12T06:25:12.381Z,52.15
2023-02-12T06:27:39.455Z,52.04
2023-02-12T06:30:06.835Z,52.11
2023-02-12T06:32:33.882Z,52.13
2023-02-12T06:35:00.651Z,52.11
2023-02-12T06:37:27.732Z,52.21
2023-02-12T06:39:54.457Z,51.90
2023-02-12T06:42:21.524Z,51.78
2023-02-12T06:44:48.675Z,51.65
2023-02-12T06:47:16.913Z,52.01
2023-02-12T06:49:43.988Z,52.04
2023-02-12T06:52:11.044Z,52.11
2023-02-12T06:54:37.789Z,52.03
2023-02-12T06:57:04.854Z,52.12
2023-02-12T06:59:31.757Z,52.02
2023-02-12T07:01:58.808Z,51.81
2023-02-12T07:04:25.580Z,52.02
2023-02-12T07:06:52.692Z,52.32
2023-02-12T07:09:19.492Z,51.97
2023-02-12T07:11:46.548Z,51.99
2023-02-12T07:14:15.471Z,51.93
2023-02-12T07:16:42.796Z,52.16
2023-02-12T07:19:12.195Z,52.47
2023-02-12T07:21:39.250Z,52.30
2023-02-12T07:24:06.260Z,52.16
2023-02-12T07:26:33.348Z,51.85
2023-02-12T07:29:00.194Z,52.29
2023-02-12T07:31:27.412Z,51.98
2023-02-12T07:33:55.437Z,52.31
2023-02-12T07:36:22.783Z,52.12
2023-02-12T07:38:49.595Z,52.16
2023-02-12T07:41:27.464Z,52.04
2023-02-12T07:43:58.732Z,51.75
2023-02-12T07:46:29.970Z,52.11
2023-02-12T07:48:58.045Z,52.44
2023-02-12T07:51:25.242Z,52.45
2023-02-12T07:53:52.107Z,52.36
2023-02-12T07:56:21.480Z,52.41
2023-02-12T07:58:49.384Z,52.22
2023-02-12T08:01:19.512Z,52.39
2023-02-12T08:03:46.617Z,52.28
2023-02-12T08:06:19.090Z,52.58
2023-02-12T08:08:46.781Z,52.57
2023-02-12T08:11:14.475Z,52.31
2023-02-12T08:13:41.390Z,52.27
2023-02-12T08:16:10.628Z,52.32
2023-02-12T08:18:37.409Z,52.66
2023-02-12T08:21:09.219Z,52.40
2023-02-12T08:23:36.055Z,52.28
2023-02-12T08:26:20.193Z,52.68
2023-02-12T08:28:48.790Z,52.70
2023-02-12T08:31:18.362Z,52.65
2023-02-12T08:33:45.642Z,52.55
2023-02-12T08:36:14.682Z,52.45
2023-02-12T08:38:42.136Z,52.45
2023-02-12T08:41:11.082Z,52.31
2023-02-12T08:43:38.334Z,52.63
2023-02-12T08:46:11.030Z,52.67
2023-02-12T08:48:38.011Z,52.74
2023-02-12T08:51:06.884Z,52.45
2023-02-12T08:53:33.680Z,52.58
2023-02-12T08:56:00.836Z,52.23
2023-02-12T08:58:27.609Z,52.55
2023-02-12T09:00:54.731Z,52.39
2023-02-12T09:03:21.566Z,52.06
2023-02-12T09:05:48.690Z,52.07
2023-02-12T09:08:15.549Z,52.09
2023-02-12T09:10:42.934Z,52.04
2023-02-12T09:13:10.468Z,52.13
2023-02-12T09:15:44.534Z,51.80
2023-02-12T09:18:12.422Z,52.12
2023-02-12T09:20:40.912Z,52.33
2023-02-12T09:23:08.593Z,52.25
2023-02-12T09:25:35.718Z,52.19
2023-02-12T09:28:02.624Z,52.19
2023-02-12T09:30:29.829Z,52.00
2023-02-12T09:32:56.906Z,52.15
2023-02-12T09:35:24.478Z,52.26
2023-02-12T09:37:52.749Z,52.23
2023-02-12T09:40:51.017Z,52.11
2023-02-12T09:43:35.957Z,52.13
2023-02-12T09:46:07.320Z,52.54
2023-02-12T09:48:40.438Z,52.64
2023-02-12T09:51:07.871Z,52.40
2023-02-12T09:53:36.722Z,52.14
2023-02-12T09:56:09.915Z,52.28
2023-02-12T09:58:41.901Z,52.15
2023-02-12T10:01:17.121Z,52.43
2023-02-12T10:03:44.688Z,52.42
2023-02-12T10:06:15.213Z,52.17
2023-02-12T10:08:52.462Z,52.16
2023-02-12T10:11:54.065Z,52.36
2023-02-12T10:14:23.553Z,52.24
2023-02-12T10:16:59.758Z,52.11
2023-02-12T10:19:49.568Z,52.10
2023-02-12T10:22:22.587Z,51.92
2023-02-12T10:24:56.720Z,52.05
2023-02-12T10:27:41.076Z,52.15
2023-02-12T10:30:33.804Z,52.05
2023-02-12T10:33:04.053Z,52.08
2023-02-12T10:35:30.842Z,52.02
2023-02-12T10:38:00.828Z,52.06
2023-02-12T10:40:30.069Z,52.27
2023-02-12T10:43:00.439Z,52.05
2023-02-12T10:45:31.285Z,51.91
2023-02-12T10:48:04.754Z,51.88
2023-02-12T10:50:43.898Z,52.19
2023-02-12T10:53:26.861Z,52.01
2023-02-12T10:56:12.146Z,51.79
2023-02-12T10:58:40.430Z,51.72
2023-02-12T11:01:32.114Z,51.88
2023-02-12T11:04:00.720Z,51.84
2023-02-12T11:06:29.191Z,52.00
2023-02-12T11:08:56.865Z,51.77
2023-02-12T11:11:28.568Z,51.84
2023-02-12T11:14:02.754Z,51.90
2023-02-12T11:16:31.867Z,51.64
2023-02-12T11:19:07.065Z,51.66
2023-02-12T11:21:34.667Z,51.85
2023-02-12T11:24:21.289Z,51.71
2023-02-12T11:26:48.052Z,51.85
2023-02-12T11:29:24.503Z,51.49
2023-02-12T11:32:02.254Z,51.37
2023-02-12T11:34:29.965Z,51.33
2023-02-12T11:36:56.789Z,51.31
2023-02-12T11:39:27.911Z,51.31
2023-02-12T11:42:14.863Z,51.32
2023-02-12T11:44:43.762Z,51.31
2023-02-12T11:47:17.745Z,51.21
2023-02-12T11:49:49.504Z,51.26
2023-02-12T11:52:32.693Z,51.00
2023-02-12T11:55:01.480Z,51.19
2023-02-12T11:58:04.683Z,51.11
2023-02-12T12:00:39.601Z,51.30
2023-02-12T12:03:19.486Z,51.05
2023-02-12T12:05:57.675Z,51.06
2023-02-12T12:08:46.672Z,51.10
2023-02-12T12:11:20.126Z,50.82
2023-02-12T12:13:59.358Z,50.71
2023-02-12T12:17:06.430Z,50.69
2023-02-12T12:19:56.082Z,50.68
2023-02-12T12:22:41.893Z,50.71
2023-02-12T12:25:27.436Z,50.73
2023-02-12T12:28:03.590Z,50.76
2023-02-12T12:30:48.980Z,50.70
2023-02-12T12:33:23.220Z,50.60
2023-02-12T12:35:56.280Z,50.58
2023-02-12T12:38:30.563Z,50.36
2023-02-12T12:41:20.819Z,50.63
2023-02-12T12:44:10.418Z,50.23
2023-02-12T12:46:40.159Z,50.38
2023-02-12T12:49:12.474Z,50.26
2023-02-12T12:52:01.043Z,50.21
2023-02-12T12:54:44.879Z,50.44
2023-02-12T12:57:21.059Z,50.36
2023-02-12T13:00:00.817Z,50.30
2023-02-12T13:02:48.938Z,50.22
2023-02-12T13:05:55.223Z,50.05
2023-02-12T13:08:35.252Z,50.33
2023-02-12T13:11:17.616Z,50.17
2023-02-12T13:13:46.311Z,50.20
2023-02-12T13:16:22.522Z,50.28
2023-02-12T13:18:55.346Z,50.16
2023-02-12T13:21:47.820Z,50.18
2023-02-12T13:24:18.760Z,50.14
2023-02-12T13:26:48.539Z,50.14
2023-02-12T13:29:28.078Z,50.04
2023-02-12T13:32:03.847Z,50.12
2023-02-12T13:34:30.871Z,50.28
2023-02-12T13:37:00.383Z,49.87
2023-02-12T13:39:39.202Z,49.97
2023-02-12T13:42:43.193Z,50.05
2023-02-12T13:45:30.776Z,50.14
2023-02-12T13:48:00.923Z,50.07
2023-02-12T13:50:34.555Z,50.08
2023-02-12T13:53:12.476Z,50.15
2023-02-12T13:55:50.767Z,50.06
2023-02-12T13:58:39.365Z,49.95
2023-02-12T14:01:08.755Z,49.84
2023-02-12T14:03:36.555Z,49.79
2023-02-12T14:06:17.891Z,49.58
2023-02-12T14:08:52.695Z,49.93
2023-02-12T14:11:23.746Z,50.03
2023-02-12T14:14:04.957Z,50.11
2023-02-12T14:16:31.713Z,49.90
2023-02-12T14:19:36.332Z,49.70
2023-02-12T14:22:32.734Z,49.94
2023-02-12T14:25:25.294Z,49.87
2023-02-12T14:27:57.273Z,49.86
2023-02-12T14:30:31.749Z,49.96
2023-02-12T14:33:08.502Z,49.72
2023-02-12T14:35:37.247Z,49.98
2023-02-12T14:38:10.293Z,49.83
2023-02-12T14:40:42.281Z,50.17
2023-02-12T14:43:55.190Z,50.03
2023-02-12T14:46:22.446Z,49.82
2023-02-12T14:48:53.471Z,50.05
2023-02-12T14:51:36.192Z,49.92
2023-02-12T14:54:04.342Z,49.79
2023-02-12T14:56:31.718Z,49.71
2023-02-12T14:58:58.493Z,49.99
2023-02-12T15:01:29.543Z,49.84
2023-02-12T15:03:56.383Z,50.08
2023-02-12T15:06:27.695Z,49.93
2023-02-12T15:08:57.819Z,50.00
2023-02-12T15:11:29.588Z,50.19
2023-02-12T15:14:15.192Z,50.19
2023-02-12T15:16:54.393Z,50.21
2023-02-12T15:19:31.510Z,50.15
2023-02-12T15:21:58.559Z,50.71
2023-02-12T15:24:25.867Z,50.34
2023-02-12T15:26:58.298Z,50.16
2023-02-12T15:29:29.185Z,50.27
2023-02-12T15:32:06.753Z,50.51
2023-02-12T15:34:35.550Z,50.49
2023-02-12T15:37:03.001Z,50.26
2023-02-12T15:39:43.724Z,50.66
2023-02-12T15:42:30.289Z,50.55
2023-02-12T15:45:15.299Z,50.86
2023-02-12T15:47:43.252Z,50.72
2023-02-12T15:50:14.097Z,50.77
2023-02-12T15:52:42.382Z,50.88
2023-02-12T15:55:20.793Z,50.90
2023-02-12T15:57:58.630Z,50.96
2023-02-12T16:00:31.581Z,50.93
2023-02-12T16:02:58.967Z,50.87
2023-02-12T16:05:25.978Z,50.98
2023-02-12T16:07:53.431Z,51.02
2023-02-12T16:10:20.617Z,51.14
2023-02-12T16:12:48.398Z,51.27
2023-02-12T16:15:30.884Z,51.18
2023-02-12T16:17:59.750Z,50.94
2023-02-12T16:20:28.359Z,51.13
2023-02-12T16:22:55.851Z,51.09
2023-02-12T16:25:28.353Z,51.13
2023-02-12T16:28:03.005Z,50.99
2023-02-12T16:30:32.672Z,51.13
2023-02-12T16:33:00.762Z,51.08
2023-02-12T16:35:35.548Z,51.13
2023-02-12T16:38:27.647Z,51.01
2023-02-12T16:41:25.509Z,51.07
2023-02-12T16:44:02.049Z,50.93
2023-02-12T16:46:29.984Z,50.83
2023-02-12T16:48:58.189Z,50.85
2023-02-12T16:51:31.031Z,50.84
2023-02-12T16:54:02.336Z,50.85
2023-02-12T16:56:32.669Z,50.92
2023-02-12T16:59:00.502Z,50.93
2023-02-12T17:01:28.020Z,50.81
2023-02-12T17:03:55.322Z,51.23
2023-02-12T17:06:23.626Z,50.92
2023-02-12T17:08:50.930Z,51.01
2023-02-12T17:11:18.107Z,51.02
2023-02-12T17:13:46.101Z,50.80
2023-02-12T17:16:21.627Z,50.95
2023-02-12T17:18:55.771Z,51.00
2023-02-12T17:21:38.155Z,51.04
2023-02-12T17:24:15.205Z,51.08
2023-02-12T17:26:41.959Z,50.98
2023-02-12T17:29:09.066Z,50.99
2023-02-12T17:31:36.827Z,51.11
2023-02-12T17:34:04.760Z,50.90
2023-02-12T17:36:31.692Z,50.87
2023-02-12T17:38:59.175Z,51.12
2023-02-12T17:41:25.937Z,51.04
2023-02-12T17:43:53.106Z,50.90
2023-02-12T17:46:21.844Z,51.16
2023-02-12T17:48:48.944Z,50.99
2023-02-12T17:51:16.165Z,50.92
2023-02-12T17:53:43.444Z,51.00
2023-02-12T17:56:18.235Z,50.88
2023-02-12T17:58:45.701Z,50.81
2023-02-12T18:01:14.260Z,51.04
2023-02-12T18:03:41.576Z,51.03
2023-02-12T18:06:09.016Z,51.03
2023-02-12T18:08:36.185Z,50.93
2023-02-12T18:11:06.926Z,51.38
2023-02-12T18:13:34.066Z,51.11
2023-02-12T18:16:01.431Z,50.88
2023-02-12T18:18:28.542Z,51.11
2023-02-12T18:20:55.718Z,51.00
2023-02-12T18:23:23.063Z,50.94
2023-02-12T18:25:49.866Z,51.19
2023-02-12T18:28:17.202Z,51.17
2023-02-12T18:30:44.231Z,51.27
2023-02-12T18:33:12.066Z,51.03
2023-02-12T18:35:41.712Z,51.14
2023-02-12T18:38:08.826Z,51.08
2023-02-12T18:40:35.690Z,51.09
2023-02-12T18:43:02.807Z,50.93
2023-02-12T18:45:29.561Z,50.92
2023-02-12T18:47:56.675Z,50.92
2023-02-12T18:50:23.490Z,51.45
2023-02-12T18:52:50.571Z,51.15
2023-02-12T18:55:17.475Z,51.32
2023-02-12T18:57:44.589Z,51.29
2023-02-12T19:00:11.823Z,51.20
2023-02-12T19:02:39.071Z,51.53
2023-02-12T19:05:06.117Z,51.36
2023-02-12T19:07:33.333Z,51.19
2023-02-12T19:10:00.118Z,51.47
2023-02-12T19:12:27.415Z,51.48
2023-02-12T19:14:54.213Z,51.24
2023-02-12T19:17:21.291Z,51.39
2023-02-12T19:19:51.277Z,51.32
2023-02-12T19:22:18.789Z,51.11
2023-02-12T19:24:47.210Z,51.33
2023-02-12T19:27:14.488Z,51.39
2023-02-12T19:29:41.320Z,51.24
2023-02-12T19:32:08.624Z,51.42
2023-02-12T19:34:35.603Z,51.34
2023-02-12T19:37:02.809Z,51.25
2023-02-12T19:39:29.666Z,51.39
2023-02-12T19:41:56.851Z,51.44
2023-02-12T19:44:24.436Z,51.44
2023-02-12T19:46:52.926Z,51.09
2023-02-12T19:49:24.860Z,51.17
2023-02-12T19:51:52.308Z,51.46
2023-02-12T19:54:19.783Z,51.44
2023-02-12T19:56:46.962Z,51.51
2023-02-12T19:59:17.168Z,51.55
2023-02-12T20:01:44.934Z,51.58
2023-02-12T20:04:16.682Z,51.48
2023-02-12T20:06:51.252Z,51.72
2023-02-12T20:09:19.309Z,51.34
2023-02-12T20:11:47.975Z,51.38
2023-02-12T20:14:15.163Z,51.54
2023-02-12T20:16:46.650Z,51.54
2023-02-12T20:19:20.151Z,51.59
2023-02-12T20:21:53.238Z,51.25
2023-02-12T20:24:24.128Z,51.66
2023-02-12T20:26:51.451Z,51.79
2023-02-12T20:29:18.595Z,51.67
2023-02-12T20:31:46.052Z,51.58
2023-02-12T20:34:14.433Z,51.55
2023-02-12T20:36:42.488Z,51.50
2023-02-12T20:39:10.804Z,51.53
2023-02-12T20:41:37.979Z,51.68
2023-02-12T20:44:05.952Z,51.73
2023-02-12T20:46:36.152Z,51.56
2023-02-12T20:49:03.422Z,51.63
2023-02-12T20:51:31.216Z,51.44
2023-02-12T20:54:00.213Z,51.63
2023-02-12T20:56:29.900Z,51.50
2023-02-12T20:58:56.764Z,51.66
2023-02-12T21:01:25.854Z,51.70
2023-02-12T21:03:54.343Z,51.62
2023-02-12T21:06:22.124Z,51.95
2023-02-12T21:08:49.495Z,51.78
2023-02-12T21:11:21.828Z,51.84
2023-02-12T21:14:02.283Z,51.84
2023-02-12T21:16:31.794Z,51.87
2023-02-12T21:18:58.717Z,51.97
2023-02-12T21:21:27.638Z,51.98
2023-02-12T21:23:56.879Z,51.58
2023-02-12T21:26:25.602Z,51.48
2023-02-12T21:28:52.716Z,51.88
2023-02-12T21:31:37.286Z,51.65
2023-02-12T21:34:04.989Z,51.90
2023-02-12T21:36:34.569Z,52.08
2023-02-12T21:39:01.456Z,52.02
2023-02-12T21:41:34.495Z,52.15
2023-02-12T21:44:06.305Z,52.06
2023-02-12T21:46:34.718Z,52.15
2023-02-12T21:49:01.603Z,52.28
2023-02-12T21:51:34.106Z,52.16
2023-02-12T21:54:02.892Z,52.51
2023-02-12T21:56:30.130Z,52.21
2023-02-12T21:58:58.189Z,52.49
2023-02-12T22:01:29.850Z,52.22
2023-02-12T22:03:56.684Z,52.40
2023-02-12T22:06:24.730Z,52.40
2023-02-12T22:08:55.522Z,52.56
2023-02-12T22:11:23.014Z,52.61
2023-02-12T22:13:49.845Z,52.70
2023-02-12T22:16:23.555Z,52.58
2023-02-12T22:18:55.029Z,52.48
2023-02-12T22:21:23.728Z,52.41
2023-02-12T22:23:50.652Z,52.30
2023-02-12T22:26:22.892Z,52.48
2023-02-12T22:28:57.521Z,52.48
2023-02-12T22:31:29.458Z,52.59
2023-02-12T22:34:00.953Z,52.37
2023-02-12T22:36:28.317Z,52.21
2023-02-12T22:38:56.138Z,52.31
2023-02-12T22:41:23.278Z,52.43
2023-02-12T22:43:50.207Z,52.41
2023-02-12T22:46:17.487Z,52.52
2023-02-12T22:48:44.375Z,52.39
2023-02-12T22:51:24.944Z,52.26
2023-02-12T22:53:51.752Z,52.61
2023-02-12T22:56:18.975Z,52.66
2023-02-12T22:58:46.026Z,52.53
2023-02-12T23:01:14.833Z,52.76
2023-02-12T23:03:41.849Z,52.36
2023-02-12T23:06:11.626Z,52.34
2023-02-12T23:08:38.448Z,52.62
2023-02-12T23:11:07.114Z,52.69
2023-02-12T23:13:35.746Z,52.73
2023-02-12T23:16:03.035Z,52.55
2023-02-12T23:18:30.345Z,52.99
2023-02-12T23:20:57.938Z,52.70
2023-02-12T23:23:24.908Z,52.86
2023-02-12T23:25:53.943Z,52.65
2023-02-12T23:28:21.185Z,52.63
2023-02-12T23:30:49.138Z,52.69
2023-02-12T23:33:16.075Z,52.92
2023-02-12T23:35:44.135Z,52.73
2023-02-12T23:38:10.894Z,52.91
2023-02-12T23:40:38.074Z,52.69
2023-02-12T23:43:04.986Z,52.71
2023-02-12T23:45:32.129Z,52.69
2023-02-12T23:47:59.003Z,52.67
2023-02-12T23:50:26.106Z,52.67
2023-02-12T23:52:52.873Z,52.78
2023-02-12T23:55:20.342Z,52.81
2023-02-12T23:57:47.606Z,52.58
